Back to top

Douglas, WY weather

Converse County Airport, Douglas, WY: 8/07/2020 14:53
Visibility10 statute milesclear sky
View 7-Day Forecast
Area Summary
Sky/CloudsSky Clear
Weather [last 24 hours]None [rain began 16:33 ended 16:42 ]
Pressure29.94 in.Hg (1014 hPa)
3-hour Pressure Tendency0.01181 in.Hg (0.4 hPa) Decreasing, then steady, or decreasing then decreasing more slowly
Dew Point21.9 °F (-5.6 °C)
Relative Humidity6.76 %
Last 24-Hour Precip.Trace
Reading TimePrecipitation
6-hr ending 8/6@17:53Trace
Temperature97 °F (36.1 °C)red thermometer
Reading TimeMinimum to Maximum Temperature
6-hr ending 8/7@11:5353.1 °F to 93 °F (11.7 °C to 33.9 °C)
6-hr ending 8/7@05:5353.1 °F to 72 °F (11.7 °C to 22.2 °C)
6-hr ending 8/6@23:5370 °F to 90 °F (21.1 °C to 32.2 °C)
6-hr ending 8/6@17:5382.9 °F to 95 °F (28.3 °C to 35 °C)
24-hr ending 8/7@00:5357.9 °F to 95 °F (14.4 °C to 35 °C)
Wind17.3 MPH (15 KT) gusting to 27.6 MPH (24 KT)green arrow pointing 315 degrees
Wind FromNorthwest (310 Degrees)
Last Hour's Peak Wind31.1 MPH (27 KT) on 8/7@14:19
Last Hour's Peak Wind FromWest/Northwest (290 Degrees)
Rolling 24-hr Peak Wind35.7 MPH (31 KT) on 8/6@20:12
Rolling 24-hr Peak Wind FromSoutheast (130 Degrees)
Twilight Begins05:28Sunshine Yesterday
Sunrise05:59N/A
Sunset20:14
Twilight Ends20:45
METARKDGW 072053Z AUTO 31015G24KT 10SM CLR 36/M06 A2994 RMK AO2 PK WND 29027/2019 SLP064 T03611056 56004
Tags: